Time;durP1;ratioP1;P1;durP2;ratioP2;P2;SDS_P1;SDS_P2;PMS_P1;PMS_P2;Temp;Humidity;BMP_temperature;BMP_pressure;BME280_temperature;BME280_humidity;BME280_pressure;Samples;Min_cycle;Max_cycle;Signal;HPM_P1;HPM_P2
2023/09/06 00:02:34;;;;;;;5.85;3.83;;;;;16.30;94587.00;;;;7394894;19;20520;-79
2023/09/06 00:05:08;;;;;;;5.18;3.67;;;;;16.20;94584.00;;;;7394145;19;20155;-80
2023/09/06 00:07:49;;;;;;;5.72;3.58;;;;;16.10;94594.00;;;;7395001;19;20651;-79
2023/09/06 00:10:18;;;;;;;5.68;3.13;;;;;16.00;94597.00;;;;7396318;19;20160;-78
2023/09/06 00:12:54;;;;;;;8.23;3.70;;;;;15.80;94599.00;;;;7396759;19;20651;-80
2023/09/06 00:15:29;;;;;;;4.88;3.80;;;;;15.60;94589.00;;;;7393866;19;20207;-79
2023/09/06 00:18:05;;;;;;;5.20;3.67;;;;;15.70;94596.00;;;;7395113;19;20204;-78
2023/09/06 00:20:34;;;;;;;4.38;3.58;;;;;15.70;94597.00;;;;7394801;19;20611;-79
2023/09/06 00:23:09;;;;;;;6.15;3.42;;;;;15.70;94601.00;;;;7394108;19;21228;-78
2023/09/06 00:25:37;;;;;;;5.80;3.72;;;;;15.80;94589.00;;;;7392858;19;20208;-78
2023/09/06 00:28:06;;;;;;;6.88;3.60;;;;;15.80;94590.00;;;;7395460;19;20133;-77
2023/09/06 00:30:44;;;;;;;6.75;4.03;;;;;15.70;94589.00;;;;7396786;19;20156;-77
2023/09/06 00:33:18;;;;;;;7.15;3.42;;;;;15.50;94583.00;;;;7403031;19;20472;-77
2023/09/06 00:35:47;;;;;;;8.43;3.67;;;;;15.50;94584.00;;;;7401611;19;20529;-77
2023/09/06 00:38:21;;;;;;;5.85;3.40;;;;;15.70;94582.00;;;;7400440;19;20632;-80
2023/09/06 00:40:51;;;;;;;8.40;3.58;;;;;16.00;94582.00;;;;7404297;19;20133;-78
2023/09/06 00:43:19;;;;;;;5.80;3.90;;;;;16.10;94585.00;;;;7402718;19;20592;-78
2023/09/06 00:45:53;;;;;;;6.15;3.25;;;;;16.00;94582.00;;;;7397680;19;20144;-77
2023/09/06 00:48:24;;;;;;;5.50;3.33;;;;;15.90;94572.00;;;;7404438;19;20462;-77
2023/09/06 00:50:59;;;;;;;5.07;3.83;;;;;15.90;94579.00;;;;7402815;19;20576;-77
2023/09/06 00:53:35;;;;;;;4.03;3.33;;;;;15.80;94582.00;;;;7401470;19;20140;-78
2023/09/06 00:56:08;;;;;;;5.75;3.92;;;;;15.60;94578.00;;;;7401943;19;20156;-77
2023/09/06 00:58:43;;;;;;;6.13;4.03;;;;;15.60;94576.00;;;;7401243;19;20166;-78
2023/09/06 01:01:19;;;;;;;4.72;3.25;;;;;15.70;94588.00;;;;7395937;19;20239;-76
2023/09/06 01:03:54;;;;;;;5.47;3.47;;;;;15.70;94575.00;;;;7402899;19;20599;-77
2023/09/06 01:06:30;;;;;;;3.88;3.22;;;;;15.70;94574.00;;;;7401016;19;20173;-77
2023/09/06 01:09:00;;;;;;;8.68;3.50;;;;;15.80;94581.00;;;;7399560;19;20149;-75
2023/09/06 01:11:42;;;;;;;3.83;3.22;;;;;15.90;94571.00;;;;7400161;19;20204;-75
2023/09/06 01:14:17;;;;;;;4.50;3.83;;;;;15.90;94570.00;;;;7400129;19;20144;-76
2023/09/06 01:16:55;;;;;;;6.47;3.47;;;;;15.90;94578.00;;;;7400548;19;20593;-75
2023/09/06 01:19:33;;;;;;;5.60;3.72;;;;;15.80;94570.00;;;;7402019;19;20212;-77
2023/09/06 01:22:22;;;;;;;4.53;3.60;;;;;15.90;94564.00;;;;7400148;19;20149;-74
2023/09/06 01:24:58;;;;;;;9.73;3.92;;;;;16.00;94568.00;;;;7398552;19;20148;-77
2023/09/06 01:27:26;;;;;;;4.93;3.58;;;;;15.90;94564.00;;;;7400783;19;20611;-74
2023/09/06 01:29:57;;;;;;;7.85;3.55;;;;;16.00;94553.00;;;;7400174;19;20957;-75
2023/09/06 01:32:34;;;;;;;4.30;3.55;;;;;16.00;94546.00;;;;7400118;19;20639;-77
2023/09/06 01:35:02;;;;;;;5.45;3.38;;;;;15.90;94546.00;;;;7400033;19;20145;-75
2023/09/06 01:37:37;;;;;;;4.05;3.53;;;;;15.90;94545.00;;;;7399550;19;20678;-77
2023/09/06 01:40:15;;;;;;;5.07;3.70;;;;;15.80;94535.00;;;;7399107;19;20594;-76
2023/09/06 01:42:51;;;;;;;4.50;3.25;;;;;15.90;94537.00;;;;7396544;19;20121;-76
2023/09/06 01:45:29;;;;;;;6.10;3.58;;;;;15.90;94542.00;;;;7397916;19;20136;-75
2023/09/06 01:48:03;;;;;;;5.95;3.55;;;;;15.90;94533.00;;;;7401675;19;20614;-74
2023/09/06 01:50:31;;;;;;;6.53;3.70;;;;;15.90;94542.00;;;;7398506;19;20149;-75
2023/09/06 01:53:06;;;;;;;4.97;3.60;;;;;16.00;94544.00;;;;7399646;19;20156;-75
2023/09/06 01:55:44;;;;;;;8.18;3.63;;;;;16.10;94544.00;;;;7398529;19;20209;-74
2023/09/06 01:58:18;;;;;;;6.47;2.92;;;;;16.10;94544.00;;;;7398838;19;20144;-75
2023/09/06 02:00:54;;;;;;;4.60;3.78;;;;;16.10;94540.00;;;;7400258;19;20137;-76
2023/09/06 02:03:36;;;;;;;7.18;3.88;;;;;16.20;94538.00;;;;7401053;19;20140;-75
2023/09/06 02:06:11;;;;;;;4.53;3.72;;;;;16.10;94551.00;;;;7396834;19;20156;-75
2023/09/06 02:08:39;;;;;;;3.72;3.03;;;;;16.00;94542.00;;;;7400605;19;20634;-75
2023/09/06 02:11:13;;;;;;;5.72;3.47;;;;;15.90;94545.00;;;;7399222;19;20136;-75
2023/09/06 02:13:41;;;;;;;4.50;3.33;;;;;15.90;94548.00;;;;7400176;19;20567;-76
2023/09/06 02:16:18;;;;;;;3.75;3.30;;;;;15.80;94542.00;;;;7397912;19;20174;-76
2023/09/06 02:18:53;;;;;;;4.20;3.20;;;;;15.70;94542.00;;;;7400395;19;20159;-78
2023/09/06 02:21:21;;;;;;;3.78;3.35;;;;;15.50;94538.00;;;;7398631;19;20145;-79
2023/09/06 02:23:56;;;;;;;5.80;3.70;;;;;15.50;94548.00;;;;7398479;19;20635;-77
2023/09/06 02:26:24;;;;;;;4.95;3.60;;;;;15.60;94548.00;;;;7398076;19;20583;-77
2023/09/06 02:28:51;;;;;;;4.35;3.53;;;;;15.60;94545.00;;;;7398226;19;20144;-77
2023/09/06 02:31:27;;;;;;;4.45;3.50;;;;;15.60;94551.00;;;;7398740;19;20144;-79
2023/09/06 02:33:55;;;;;;;4.45;3.60;;;;;15.40;94544.00;;;;7399340;19;20204;-78
2023/09/06 02:36:29;;;;;;;4.88;3.40;;;;;15.40;94533.00;;;;7398022;19;20175;-78
2023/09/06 02:39:03;;;;;;;4.93;3.28;;;;;15.40;94536.00;;;;7397968;19;20175;-77
2023/09/06 02:41:39;;;;;;;8.43;3.83;;;;;15.30;94533.00;;;;7399020;19;20149;-78
2023/09/06 02:44:07;;;;;;;4.28;3.55;;;;;15.10;94546.00;;;;7398670;19;20141;-81
2023/09/06 02:46:35;;;;;;;4.78;3.25;;;;;15.20;94540.00;;;;7398824;19;20156;-76
2023/09/06 02:49:13;;;;;;;5.05;3.80;;;;;15.10;94543.00;;;;7396552;19;20152;-79
2023/09/06 02:51:47;;;;;;;7.35;3.33;;;;;15.10;94542.00;;;;7395827;19;20128;-78
2023/09/06 02:54:21;;;;;;;4.15;3.72;;;;;15.10;94538.00;;;;7397463;19;20222;-76
2023/09/06 02:56:57;;;;;;;4.90;3.65;;;;;15.20;94547.00;;;;7398176;19;20641;-78
2023/09/06 02:59:31;;;;;;;4.35;3.63;;;;;15.10;94542.00;;;;7396363;19;20152;-77
2023/09/06 03:02:12;;;;;;;5.43;3.92;;;;;15.40;94541.00;;;;7395428;19;20524;-78
2023/09/06 03:04:41;;;;;;;7.90;3.78;;;;;15.40;94541.00;;;;7397272;19;20168;-76
2023/09/06 03:07:15;;;;;;;7.07;4.18;;;;;15.50;94539.00;;;;7396097;19;20621;-78
2023/09/06 03:09:50;;;;;;;7.32;3.75;;;;;15.60;94545.00;;;;7396581;19;20157;-77
2023/09/06 03:12:24;;;;;;;4.85;3.75;;;;;15.40;94534.00;;;;7397414;19;20144;-77
2023/09/06 03:14:55;;;;;;;4.95;3.95;;;;;15.20;94538.00;;;;7396359;19;20141;-77
2023/09/06 03:17:30;;;;;;;8.68;3.88;;;;;15.40;94540.00;;;;7397280;19;20136;-76
2023/09/06 03:19:59;;;;;;;5.45;3.70;;;;;15.60;94543.00;;;;7397515;19;20137;-78
2023/09/06 03:22:34;;;;;;;10.20;4.13;;;;;15.50;94540.00;;;;7396763;19;20152;-74
2023/09/06 03:25:02;;;;;;;8.15;3.60;;;;;15.40;94535.00;;;;7396984;19;20197;-75
2023/09/06 03:27:37;;;;;;;6.55;3.83;;;;;15.30;94545.00;;;;7399157;19;20140;-74
2023/09/06 03:30:15;;;;;;;6.03;3.53;;;;;15.20;94532.00;;;;7397455;19;20638;-75
2023/09/06 03:32:49;;;;;;;5.43;3.90;;;;;15.10;94543.00;;;;7397113;19;20128;-75
2023/09/06 03:35:24;;;;;;;6.60;3.60;;;;;15.20;94531.00;;;;7396854;19;20167;-75
2023/09/06 03:37:59;;;;;;;3.80;3.33;;;;;15.00;94536.00;;;;7396751;19;20153;-75
2023/09/06 03:40:36;;;;;;;4.45;3.47;;;;;15.00;94540.00;;;;7396257;19;20627;-76
2023/09/06 03:43:26;;;;;;;4.22;3.33;;;;;14.70;94533.00;;;;7396538;19;20535;-73
2023/09/06 03:45:58;;;;;;;5.22;3.75;;;;;14.70;94534.00;;;;7396129;19;20587;-75
2023/09/06 03:48:35;;;;;;;6.57;3.63;;;;;14.50;94539.00;;;;7394923;19;20513;-74
2023/09/06 03:51:04;;;;;;;4.68;3.65;;;;;14.40;94530.00;;;;7396546;19;20250;-74
2023/09/06 03:53:42;;;;;;;5.03;3.58;;;;;14.40;94537.00;;;;7395793;19;20650;-76
2023/09/06 03:56:12;;;;;;;5.40;4.00;;;;;14.40;94536.00;;;;7394646;19;20159;-73
2023/09/06 03:58:47;;;;;;;6.57;3.85;;;;;14.20;94545.00;;;;7396883;19;20129;-75
2023/09/06 04:01:29;;;;;;;4.93;3.80;;;;;14.40;94540.00;;;;7391332;19;20251;-75
2023/09/06 04:04:04;;;;;;;5.70;4.25;;;;;14.50;94540.00;;;;7393675;19;20142;-78
2023/09/06 04:06:43;;;;;;;4.10;3.70;;;;;14.40;94538.00;;;;7392065;19;20208;-76
2023/09/06 04:09:18;;;;;;;4.97;3.47;;;;;14.40;94541.00;;;;7396642;19;20132;-75
2023/09/06 04:11:52;;;;;;;5.18;3.70;;;;;14.60;94544.00;;;;7396322;19;20144;-75
2023/09/06 04:14:29;;;;;;;6.03;3.90;;;;;14.70;94544.00;;;;7395408;19;20148;-77
2023/09/06 04:17:07;;;;;;;4.57;4.00;;;;;14.80;94539.00;;;;7396809;19;20132;-75
2023/09/06 04:19:36;;;;;;;4.25;3.65;;;;;14.70;94535.00;;;;7393842;19;20625;-75
2023/09/06 04:22:13;;;;;;;6.93;4.05;;;;;14.70;94540.00;;;;7394233;19;20603;-75
2023/09/06 04:24:48;;;;;;;8.40;4.45;;;;;14.70;94541.00;;;;7395302;19;20157;-74
2023/09/06 04:27:15;;;;;;;5.82;4.10;;;;;14.50;94551.00;;;;7394382;19;20140;-75
2023/09/06 04:29:52;;;;;;;7.97;3.97;;;;;14.40;94554.00;;;;7395748;19;20149;-74
2023/09/06 04:32:20;;;;;;;5.82;3.90;;;;;14.50;94544.00;;;;7396085;19;20136;-75
2023/09/06 04:34:55;;;;;;;5.28;3.67;;;;;14.50;94544.00;;;;7391954;19;20359;-76
2023/09/06 04:37:31;;;;;;;4.40;3.65;;;;;14.40;94543.00;;;;7363940;19;20152;-76
2023/09/06 04:40:09;;;;;;;5.57;4.18;;;;;14.40;94543.00;;;;7278664;19;2003976;-76
2023/09/06 04:42:46;;;;;;;6.65;3.83;;;;;14.40;94548.00;;;;7382407;19;20127;-74
2023/09/06 04:45:20;;;;;;;7.32;4.20;;;;;14.30;94539.00;;;;7382144;19;20154;-74
2023/09/06 04:47:49;;;;;;;6.18;4.00;;;;;14.30;94547.00;;;;7382605;19;20180;-76
2023/09/06 04:50:24;;;;;;;5.63;4.25;;;;;14.20;94552.00;;;;7382453;19;20598;-74
2023/09/06 04:52:52;;;;;;;7.68;4.07;;;;;14.10;94549.00;;;;7380908;19;20191;-77
2023/09/06 04:55:20;;;;;;;4.78;3.78;;;;;14.10;94553.00;;;;7381637;19;20145;-75
2023/09/06 04:57:54;;;;;;;5.40;4.30;;;;;14.10;94551.00;;;;7381838;19;20157;-74
2023/09/06 05:00:30;;;;;;;8.73;4.10;;;;;14.10;94552.00;;;;7380656;19;20148;-74
2023/09/06 05:03:13;;;;;;;6.40;4.35;;;;;14.30;94558.00;;;;7380893;19;20678;-77
2023/09/06 05:05:42;;;;;;;6.80;4.15;;;;;14.20;94552.00;;;;7382409;19;20136;-74
2023/09/06 05:08:19;;;;;;;4.75;4.07;;;;;14.30;94555.00;;;;7380865;19;20144;-74
2023/09/06 05:10:51;;;;;;;5.60;3.92;;;;;14.40;94562.00;;;;7381127;19;20498;-74
2023/09/06 05:13:27;;;;;;;4.43;3.78;;;;;14.50;94562.00;;;;7381309;19;20117;-75
2023/09/06 05:16:02;;;;;;;5.63;3.90;;;;;14.40;94552.00;;;;7382117;19;20154;-75
2023/09/06 05:18:43;;;;;;;6.35;4.00;;;;;14.50;94558.00;;;;7388037;19;20145;-77
2023/09/06 05:21:13;;;;;;;4.63;3.85;;;;;14.60;94555.00;;;;7388248;19;20173;-76
2023/09/06 05:23:47;;;;;;;5.70;4.13;;;;;14.70;94557.00;;;;7388252;19;20148;-75
2023/09/06 05:26:16;;;;;;;8.15;4.28;;;;;14.70;94553.00;;;;7388579;19;20132;-76
2023/09/06 05:28:44;;;;;;;6.75;4.03;;;;;14.80;94555.00;;;;7387573;19;20144;-76
2023/09/06 05:31:18;;;;;;;6.78;4.07;;;;;14.90;94560.00;;;;7388396;19;20176;-75
2023/09/06 05:33:46;;;;;;;6.00;3.78;;;;;15.10;94568.00;;;;7387676;19;20145;-75
2023/09/06 05:36:14;;;;;;;8.90;4.10;;;;;15.00;94562.00;;;;7385855;19;20527;-77
2023/09/06 05:38:50;;;;;;;6.13;4.05;;;;;15.10;94556.00;;;;7387451;19;20159;-75
2023/09/06 05:41:18;;;;;;;6.10;4.47;;;;;15.30;94572.00;;;;7387580;19;20129;-75
2023/09/06 05:43:46;;;;;;;4.65;3.88;;;;;15.50;94561.00;;;;7386612;19;20467;-75
2023/09/06 05:46:20;;;;;;;5.63;4.13;;;;;15.60;94567.00;;;;7386413;19;20156;-74
2023/09/06 05:49:00;;;;;;;6.88;3.65;;;;;15.70;94563.00;;;;7388359;19;20129;-74
2023/09/06 05:51:35;;;;;;;5.45;3.75;;;;;15.80;94569.00;;;;7385169;19;20237;-76
2023/09/06 05:54:03;;;;;;;7.20;4.00;;;;;15.80;94573.00;;;;7388333;19;20150;-76
2023/09/06 05:56:37;;;;;;;8.30;3.97;;;;;15.80;94579.00;;;;7386734;19;20151;-74
2023/09/06 05:59:05;;;;;;;4.90;3.88;;;;;15.90;94573.00;;;;7388580;19;20133;-76
2023/09/06 06:01:41;;;;;;;4.20;3.78;;;;;16.10;94577.00;;;;7387065;19;20179;-77
2023/09/06 06:04:22;;;;;;;4.80;3.60;;;;;16.10;94568.00;;;;7388402;19;20175;-76
2023/09/06 06:06:57;;;;;;;4.60;3.70;;;;;16.20;94568.00;;;;7389078;19;20462;-77
2023/09/06 06:09:31;;;;;;;5.65;3.97;;;;;16.30;94568.00;;;;7387818;19;20642;-76
2023/09/06 06:11:59;;;;;;;4.43;3.70;;;;;16.40;94560.00;;;;7386619;19;20144;-76
2023/09/06 06:14:36;;;;;;;3.85;3.20;;;;;16.40;94564.00;;;;7386815;19;20143;-76
2023/09/06 06:17:10;;;;;;;6.80;4.00;;;;;16.60;94562.00;;;;7387770;19;20229;-74
2023/09/06 06:19:45;;;;;;;5.07;4.38;;;;;16.70;94558.00;;;;7385299;19;20148;-74
2023/09/06 06:22:21;;;;;;;5.15;4.05;;;;;16.90;94564.00;;;;7385826;19;20219;-74
2023/09/06 06:24:50;;;;;;;7.40;3.80;;;;;17.00;94568.00;;;;7388349;19;20468;-74
2023/09/06 06:27:25;;;;;;;6.75;3.75;;;;;17.10;94569.00;;;;7386693;19;20506;-76
2023/09/06 06:29:53;;;;;;;6.53;3.97;;;;;17.20;94579.00;;;;7386529;19;20618;-75
2023/09/06 06:32:28;;;;;;;4.00;3.60;;;;;17.30;94576.00;;;;7386242;19;20133;-74
2023/09/06 06:35:00;;;;;;;4.80;3.60;;;;;17.40;94580.00;;;;7388736;19;20584;-74
2023/09/06 06:37:35;;;;;;;5.20;3.45;;;;;17.70;94573.00;;;;7384744;19;20169;-74
2023/09/06 06:40:05;;;;;;;4.30;3.80;;;;;17.90;94526.00;;;;7386369;19;20583;-75
2023/09/06 06:42:57;;;;;;;5.20;3.97;;;;;18.00;94582.00;;;;7386578;19;20186;-75
2023/09/06 06:45:47;;;;;;;4.38;3.70;;;;;18.20;94580.00;;;;7385861;19;20526;-74
2023/09/06 06:48:14;;;;;;;5.70;4.03;;;;;18.30;94584.00;;;;7385927;19;20140;-76
2023/09/06 06:50:49;;;;;;;4.32;3.25;;;;;18.40;94595.00;;;;7385688;19;20181;-75
2023/09/06 06:53:17;;;;;;;6.32;4.00;;;;;18.60;94589.00;;;;7386378;19;20129;-75
2023/09/06 06:55:53;;;;;;;4.57;3.78;;;;;18.70;94589.00;;;;7386623;19;20135;-74
2023/09/06 06:58:27;;;;;;;4.07;3.40;;;;;18.80;94589.00;;;;7385351;19;20152;-72
2023/09/06 07:00:56;;;;;;;5.68;3.90;;;;;18.90;94588.00;;;;7386657;19;20153;-73
2023/09/06 07:03:25;;;;;;;5.97;3.90;;;;;19.10;94585.00;;;;7385730;19;20187;-75
2023/09/06 07:06:00;;;;;;;7.18;3.72;;;;;19.20;94587.00;;;;7385939;19;20674;-76
2023/09/06 07:08:38;;;;;;;3.88;3.15;;;;;19.30;94585.00;;;;7384962;19;20515;-76
2023/09/06 07:11:13;;;;;;;4.82;3.55;;;;;19.60;94581.00;;;;7385191;19;21183;-73
2023/09/06 07:13:49;;;;;;;4.60;3.75;;;;;19.80;94575.00;;;;7387911;19;20173;-73
2023/09/06 07:16:23;;;;;;;4.80;3.58;;;;;19.80;94583.00;;;;7386559;19;20140;-73
2023/09/06 07:18:54;;;;;;;6.30;3.58;;;;;19.90;94591.00;;;;7385029;19;20208;-73
2023/09/06 07:21:30;;;;;;;4.78;4.00;;;;;20.00;94589.00;;;;7387863;19;20162;-75
2023/09/06 07:24:06;;;;;;;8.75;4.00;;;;;20.10;94587.00;;;;7385941;19;20607;-74
2023/09/06 07:26:41;;;;;;;4.45;3.75;;;;;20.30;94584.00;;;;7385447;19;20156;-74
2023/09/06 07:29:17;;;;;;;4.57;3.50;;;;;20.40;94583.00;;;;7385305;19;20132;-74
2023/09/06 07:31:46;;;;;;;6.30;3.65;;;;;20.60;94591.00;;;;7386283;19;20595;-76
2023/09/06 07:34:21;;;;;;;4.47;4.00;;;;;20.80;94593.00;;;;7384454;19;20634;-74
2023/09/06 07:36:48;;;;;;;4.32;3.58;;;;;20.80;94584.00;;;;7385370;19;20683;-73
2023/09/06 07:39:17;;;;;;;5.18;3.88;;;;;20.80;94587.00;;;;7386789;19;20133;-74
2023/09/06 07:41:53;;;;;;;3.75;3.45;;;;;20.90;94587.00;;;;7384627;19;20156;-73
2023/09/06 07:44:21;;;;;;;6.07;3.92;;;;;20.90;94586.00;;;;7384916;19;20164;-77
2023/09/06 07:46:56;;;;;;;4.97;3.55;;;;;21.10;94596.00;;;;7384412;19;20494;-75
2023/09/06 07:49:26;;;;;;;3.92;3.40;;;;;21.30;94601.00;;;;7384990;19;20152;-75
2023/09/06 07:52:04;;;;;;;5.97;3.15;;;;;21.10;94602.00;;;;7386189;19;20131;-75
2023/09/06 07:54:38;;;;;;;6.43;4.10;;;;;21.50;94597.00;;;;7383112;19;20149;-74
2023/09/06 07:57:12;;;;;;;4.68;3.40;;;;;21.50;94599.00;;;;7385153;19;20516;-73
2023/09/06 07:59:47;;;;;;;3.47;3.17;;;;;21.60;94602.00;;;;7383762;19;20230;-75
2023/09/06 08:02:23;;;;;;;4.90;3.75;;;;;21.70;94600.00;;;;7381974;19;20188;-76
2023/09/06 08:05:05;;;;;;;3.95;3.30;;;;;21.70;94603.00;;;;7382698;19;20149;-75
2023/09/06 08:07:35;;;;;;;8.45;3.38;;;;;21.90;94609.00;;;;7384410;19;20128;-78
2023/09/06 08:10:11;;;;;;;4.22;3.42;;;;;21.90;94614.00;;;;7383147;19;20200;-76
2023/09/06 08:12:39;;;;;;;5.30;3.42;;;;;22.00;94617.00;;;;7382642;19;20212;-76
2023/09/06 08:15:08;;;;;;;6.03;3.45;;;;;22.10;94614.00;;;;7382541;19;20161;-77
2023/09/06 08:17:49;;;;;;;3.95;3.50;;;;;22.10;94615.00;;;;7385289;19;20148;-76
2023/09/06 08:20:18;;;;;;;3.83;3.13;;;;;22.20;94615.00;;;;7382536;19;20508;-76
2023/09/06 08:22:53;;;;;;;4.47;3.65;;;;;22.10;94622.00;;;;7384380;19;20148;-78
2023/09/06 08:25:28;;;;;;;5.13;3.90;;;;;22.10;94620.00;;;;7385126;19;20148;-75
2023/09/06 08:28:03;;;;;;;3.95;3.42;;;;;22.40;94624.00;;;;7383285;19;20147;-76
2023/09/06 08:30:33;;;;;;;3.55;3.05;;;;;22.40;94626.00;;;;7386774;19;20141;-75
2023/09/06 08:33:08;;;;;;;6.22;3.33;;;;;22.20;94623.00;;;;7384941;19;20150;-75
2023/09/06 08:35:44;;;;;;;5.57;3.40;;;;;22.40;94626.00;;;;7383692;19;20145;-76
2023/09/06 08:38:19;;;;;;;3.78;3.38;;;;;22.50;94620.00;;;;7382291;19;20152;-77
2023/09/06 08:40:47;;;;;;;5.38;3.55;;;;;22.70;94620.00;;;;7383326;19;20163;-77
2023/09/06 08:43:26;;;;;;;4.47;3.88;;;;;23.00;94622.00;;;;7384012;19;20140;-75
2023/09/06 08:45:55;;;;;;;4.65;3.63;;;;;23.00;94625.00;;;;7382981;19;20153;-77
2023/09/06 08:48:31;;;;;;;5.03;3.70;;;;;23.10;94623.00;;;;7384931;19;20154;-75
2023/09/06 08:51:07;;;;;;;6.78;3.70;;;;;23.50;94630.00;;;;7384838;19;20909;-75
2023/09/06 08:53:43;;;;;;;4.43;3.88;;;;;23.50;94630.00;;;;7390552;19;20156;-77
2023/09/06 08:56:19;;;;;;;4.57;3.88;;;;;23.50;94630.00;;;;7391239;19;20144;-76
2023/09/06 08:58:46;;;;;;;3.95;3.55;;;;;23.60;94621.00;;;;7391368;19;20188;-76
2023/09/06 09:01:21;;;;;;;5.53;3.78;;;;;23.70;94633.00;;;;7390896;19;20173;-77
2023/09/06 09:03:57;;;;;;;4.00;3.50;;;;;23.60;94626.00;;;;7391218;19;20156;-77
2023/09/06 09:06:32;;;;;;;4.60;3.50;;;;;23.50;94635.00;;;;7391478;19;20184;-76
2023/09/06 09:09:33;;;;;;;6.88;3.53;;;;;23.50;94635.00;;;;7390320;19;20215;-75
2023/09/06 09:12:09;;;;;;;4.10;3.70;;;;;23.60;94625.00;;;;7390433;19;20164;-77
2023/09/06 09:14:45;;;;;;;4.40;3.38;;;;;23.90;94628.00;;;;7390414;19;20156;-77
2023/09/06 09:17:22;;;;;;;3.90;3.50;;;;;23.70;94634.00;;;;7390351;19;20155;-76
2023/09/06 09:20:02;;;;;;;3.75;3.35;;;;;24.10;94631.00;;;;7387512;19;20549;-77
2023/09/06 09:22:38;;;;;;;4.45;3.40;;;;;24.10;94630.00;;;;7388963;19;20189;-77
2023/09/06 09:25:16;;;;;;;4.85;3.08;;;;;24.10;94636.00;;;;7390574;19;20156;-78
2023/09/06 09:27:55;;;;;;;7.80;3.55;;;;;24.10;94623.00;;;;7390174;19;20170;-78
2023/09/06 09:30:31;;;;;;;3.97;3.42;;;;;24.30;94631.00;;;;7391056;19;20169;-78
2023/09/06 09:33:03;;;;;;;5.32;3.47;;;;;24.10;94625.00;;;;7389835;19;20125;-76
2023/09/06 09:35:40;;;;;;;5.97;3.70;;;;;24.50;94625.00;;;;7390541;19;20240;-77
2023/09/06 09:38:15;;;;;;;4.43;3.60;;;;;24.40;94623.00;;;;7391531;19;20132;-76
2023/09/06 09:41:06;;;;;;;3.63;3.25;;;;;24.40;94625.00;;;;7390408;19;20152;-75
2023/09/06 09:43:41;;;;;;;4.75;3.50;;;;;24.20;94623.00;;;;7391667;19;20214;-75
2023/09/06 09:46:12;;;;;;;5.53;3.63;;;;;24.50;94623.00;;;;7388998;19;20664;-76
2023/09/06 09:48:53;;;;;;;3.78;3.38;;;;;24.40;94628.00;;;;7392268;19;20131;-77
2023/09/06 09:51:21;;;;;;;5.00;3.40;;;;;24.40;94635.00;;;;7388218;19;20461;-77
2023/09/06 09:53:56;;;;;;;4.00;3.50;;;;;24.70;94626.00;;;;7387963;19;20145;-75
2023/09/06 09:56:24;;;;;;;5.43;4.57;;;;;24.80;94631.00;;;;7390069;19;20148;-77
2023/09/06 09:59:03;;;;;;;3.95;3.55;;;;;25.20;94624.00;;;;7389948;19;20216;-78
2023/09/06 10:01:33;;;;;;;5.93;4.07;;;;;24.80;94638.00;;;;7390890;19;20479;-77
2023/09/06 10:04:14;;;;;;;4.18;3.75;;;;;24.90;94630.00;;;;7388596;19;20603;-77
2023/09/06 10:06:49;;;;;;;4.43;3.80;;;;;25.10;94630.00;;;;7387905;19;20239;-77
2023/09/06 10:09:24;;;;;;;5.65;3.90;;;;;25.10;94621.00;;;;7387654;19;20148;-77
2023/09/06 10:11:55;;;;;;;5.95;3.67;;;;;25.40;94621.00;;;;7388955;19;20129;-77
2023/09/06 10:14:31;;;;;;;6.10;3.72;;;;;25.70;94628.00;;;;7387964;19;20171;-77
2023/09/06 10:17:00;;;;;;;8.43;4.15;;;;;25.20;94624.00;;;;7388993;19;20154;-78
2023/09/06 10:19:39;;;;;;;5.47;3.78;;;;;25.50;94631.00;;;;7388903;19;20993;-76
2023/09/06 10:22:21;;;;;;;5.00;3.92;;;;;26.00;94617.00;;;;7389019;19;20144;-74
2023/09/06 10:25:03;;;;;;;5.03;4.05;;;;;26.10;94621.00;;;;7386206;19;20128;-74
2023/09/06 10:27:34;;;;;;;5.32;3.72;;;;;26.20;94624.00;;;;7388002;19;20152;-75
2023/09/06 10:30:11;;;;;;;6.50;4.18;;;;;26.30;94623.00;;;;7388344;19;20171;-74
2023/09/06 10:32:46;;;;;;;4.88;4.43;;;;;26.50;94629.00;;;;7386191;19;20128;-75
2023/09/06 10:35:24;;;;;;;5.35;4.10;;;;;27.00;94618.00;;;;7387089;19;20259;-76
2023/09/06 10:38:14;;;;;;;4.88;4.20;;;;;27.10;94621.00;;;;7388006;19;20227;-77
2023/09/06 10:40:51;;;;;;;4.07;3.75;;;;;27.50;94614.00;;;;7387531;19;20169;-74
2023/09/06 10:43:41;;;;;;;4.45;3.80;;;;;27.40;94617.00;;;;7386279;19;20519;-76
2023/09/06 10:46:19;;;;;;;4.40;4.00;;;;;27.00;94623.00;;;;7387651;19;20149;-76
2023/09/06 10:49:20;;;;;;;5.97;3.72;;;;;26.90;94613.00;;;;7390433;19;20154;-76
2023/09/06 10:52:03;;;;;;;4.82;3.80;;;;;27.30;94615.00;;;;7387549;19;20156;-74
2023/09/06 10:54:42;;;;;;;3.95;3.58;;;;;27.20;94620.00;;;;7389132;19;20215;-78
2023/09/06 10:57:12;;;;;;;5.28;3.67;;;;;27.20;94620.00;;;;7387211;19;20163;-75
2023/09/06 10:59:58;;;;;;;6.82;3.80;;;;;27.50;94625.00;;;;7387917;19;20148;-76
2023/09/06 11:02:35;;;;;;;4.55;3.55;;;;;28.00;94614.00;;;;7389398;19;20568;-81
2023/09/06 11:05:37;;;;;;;6.22;3.90;;;;;27.70;94612.00;;;;7390363;19;20160;-75
2023/09/06 11:08:24;;;;;;;4.25;3.65;;;;;27.70;94612.00;;;;7387591;19;20143;-75
2023/09/06 11:11:05;;;;;;;4.43;3.63;;;;;27.80;94616.00;;;;7388834;19;20615;-76
2023/09/06 11:13:42;;;;;;;3.97;3.65;;;;;27.90;94612.00;;;;7386987;19;20156;-76
2023/09/06 11:16:18;;;;;;;5.85;3.80;;;;;27.90;94613.00;;;;7389393;19;20137;-76
2023/09/06 11:18:53;;;;;;;4.60;3.33;;;;;27.90;94616.00;;;;7391565;19;20128;-75
2023/09/06 11:21:24;;;;;;;7.90;3.60;;;;;28.30;94613.00;;;;7388180;19;20148;-75
2023/09/06 11:23:58;;;;;;;5.43;3.63;;;;;28.40;94614.00;;;;7389234;19;20208;-76
2023/09/06 11:26:34;;;;;;;3.80;3.35;;;;;28.70;94610.00;;;;7387965;19;20188;-77
2023/09/06 11:29:08;;;;;;;6.53;4.25;;;;;29.00;94607.00;;;;7387334;19;20161;-75
2023/09/06 11:31:41;;;;;;;4.10;3.70;;;;;29.00;94600.00;;;;7388232;19;20148;-75
2023/09/06 11:34:20;;;;;;;5.68;4.05;;;;;29.30;94597.00;;;;7387076;19;20200;-75
2023/09/06 11:36:49;;;;;;;6.20;4.43;;;;;29.20;94598.00;;;;7387689;19;20511;-74
2023/09/06 11:39:28;;;;;;;5.93;4.05;;;;;28.80;94597.00;;;;7389314;19;20135;-75
2023/09/06 11:41:58;;;;;;;6.82;4.57;;;;;29.20;94604.00;;;;7388790;19;20128;-75
2023/09/06 11:44:39;;;;;;;13.07;4.38;;;;;29.20;94606.00;;;;7386634;19;20165;-75
2023/09/06 11:47:09;;;;;;;9.63;4.40;;;;;29.30;94600.00;;;;7387251;19;20155;-76
2023/09/06 11:49:46;;;;;;;6.47;4.13;;;;;29.20;94602.00;;;;7387056;19;20148;-76
2023/09/06 11:52:19;;;;;;;4.78;4.22;;;;;29.40;94598.00;;;;7383544;19;20171;-76
2023/09/06 11:54:58;;;;;;;6.45;4.30;;;;;29.20;94595.00;;;;7386181;19;20155;-74
2023/09/06 11:57:30;;;;;;;6.72;4.50;;;;;29.40;94601.00;;;;7380937;19;20132;-76
2023/09/06 12:00:25;;;;;;;6.85;4.57;;;;;29.40;94596.00;;;;7384235;19;20152;-75
2023/09/06 12:03:07;;;;;;;6.03;4.20;;;;;29.30;94602.00;;;;7383754;19;20180;-78
2023/09/06 12:05:53;;;;;;;8.68;4.55;;;;;29.40;94598.00;;;;7384791;19;20579;-78
2023/09/06 12:08:30;;;;;;;9.38;4.75;;;;;29.00;94601.00;;;;7383969;19;20495;-77
2023/09/06 12:11:05;;;;;;;5.93;4.00;;;;;29.30;94603.00;;;;7385974;19;20148;-78
2023/09/06 12:13:39;;;;;;;8.07;4.15;;;;;29.00;94593.00;;;;7384145;19;20148;-75
2023/09/06 12:16:09;;;;;;;6.63;4.68;;;;;29.20;94594.00;;;;7382840;19;20562;-76
2023/09/06 12:18:45;;;;;;;6.10;4.20;;;;;29.20;94591.00;;;;7383927;19;20156;-74
2023/09/06 12:21:21;;;;;;;9.20;3.95;;;;;29.20;94596.00;;;;7383199;19;20136;-76
2023/09/06 12:23:57;;;;;;;5.80;4.70;;;;;29.50;94599.00;;;;7385222;19;20159;-76
2023/09/06 12:26:33;;;;;;;5.72;4.40;;;;;29.00;94591.00;;;;7386171;19;20151;-76
2023/09/06 12:29:08;;;;;;;4.38;3.97;;;;;28.90;94584.00;;;;7392976;19;20144;-74
2023/09/06 12:31:35;;;;;;;4.60;4.20;;;;;29.00;94599.00;;;;7389714;19;20469;-77
2023/09/06 12:34:04;;;;;;;9.50;4.60;;;;;29.30;94583.00;;;;7390883;19;20148;-77
2023/09/06 12:36:39;;;;;;;5.03;3.90;;;;;29.20;94586.00;;;;7390297;19;20180;-76
2023/09/06 12:39:06;;;;;;;6.10;4.07;;;;;29.50;94583.00;;;;7390068;19;20152;-76
2023/09/06 12:41:42;;;;;;;8.98;4.38;;;;;29.90;94584.00;;;;7391000;19;20230;-76
2023/09/06 12:44:12;;;;;;;5.38;4.43;;;;;29.80;94582.00;;;;7390341;19;20595;-74
2023/09/06 12:46:47;;;;;;;7.00;4.53;;;;;29.50;94580.00;;;;7389670;19;20151;-74
2023/09/06 12:49:15;;;;;;;5.15;4.65;;;;;29.80;94577.00;;;;7390964;19;20476;-75
2023/09/06 12:51:47;;;;;;;4.72;4.28;;;;;29.30;94581.00;;;;7390700;19;20158;-78
2023/09/06 12:54:21;;;;;;;12.95;4.75;;;;;29.70;94574.00;;;;7390258;19;20156;-72
2023/09/06 12:56:49;;;;;;;7.95;4.35;;;;;29.80;94586.00;;;;7389961;19;20145;-74